weather.gov     
National Weather Service

Terminal Aerodrome Forecast
NWS Homepage
This page is being discontinued on March 12, 2014.
The same data is available at this site. Please update your bookmarks.
Thank you, and we apologize for the inconvenience.
Please send an email to SR-SRH.Webmaster@noaa.gov with any concerns.


Current Version
Previous Version:    01  02  03  04  05  06  07  08  09  10  11  12  13  14  
[Printable]
624
FTUS41 KBOX 011138
TAFBDL
TAF
KBDL 011138Z 0112/0218 23005KT P6SM BKN025 OVC040
     FM011600 26006KT P6SM BKN030
     FM011800 31007KT P6SM BKN035
     FM012000 32006KT P6SM BKN100
     FM020400 VRB03KT 3SM -SN OVC030
     FM020700 02005KT 1/2SM SN OVC025
     FM021000 02008KT 1/4SM +SN OVC008=


624
FTUS41 KBOX 011138
TAFBDL
TAF
KBDL 011138Z 0112/0218 23005KT P6SM BKN025 OVC040
     FM011600 26006KT P6SM BKN030
     FM011800 31007KT P6SM BKN035
     FM012000 32006KT P6SM BKN100
     FM020400 VRB03KT 3SM -SN OVC030
     FM020700 02005KT 1/2SM SN OVC025
     FM021000 02008KT 1/4SM +SN OVC008=




U.S. Dept. of Commerce
NOAA National Weather Service
1325 East West Highway
Silver Spring, MD 20910
E-mail: w-nws.webmaster@noaa.gov
Page last modified: May 16, 2007
NATIONAL WEATHER SERVICE: for Safety, for Work, for Fun - FOR LIFE